Warrensburg, IL (62573)

8:52 PM CDT on October 01, 2014 (GMT -0500)
Forsyth Pkwy | Change Station
CLOSE
Current Station
Personal Weather Station
Location: Forsyth, IL
Elevation: 669 ft
Nearby Weather Stations

Elev 669 ft 39.93 °N, 88.97 °W | Updated 2 minutes ago

Overcast
Overcast
76.0 °F
Feels Like 78 °F
N
0.0
Wind Variable Wind from ESE
Gusts 0.0 mph

Today
High -- | Low -- °F
--% Chance of Precip.
Yesterday
High -- | Low -- °F
Precip. -- in
6:52 AM 6:38 PM
First Quarter, 53% visible
Pressure 29.87 in
Visibility 10.0 miles
Clouds Clear
Heat Index 78 °F
Dew Point 62 °F
Humidity 63%
Rainfall 0.00 in
Snow Depth Not available.
UV 0 out of 12
Pollen 3.80 out of 12
Air Quality Not available.
Flu Activity Not available.
METAR KDEC 020054Z 14006KT 10SM CLR 23/16 A2988 RMK AO2 SLP114 T02330156

More Conditions Fewer Conditions

Pressure 29.87 in
Visibility 10.0 miles
Clouds Clear
Heat Index 78 °F
Dew Point 62 °F
Humidity 63%
Rainfall 0.00 in
Snow Depth Not available.
UV 0 out of 12
Pollen 3.80 out of 12
Air Quality Not available.
Flu Activity Not available.
METAR KDEC 020054Z 14006KT 10SM CLR 23/16 A2988 RMK AO2 SLP114 T02330156

More Conditions Fewer Conditions

10-Day Weather Forecast

Almanac

Astronomy

Oct. 01, 2014 Rise Set
Actual Time 6:52 AM CDT 6:38 PM CDT
Civil Twilight 6:25 AM CDT 7:05 PM CDT
Nautical Twilight 5:54 AM CDT 7:36 PM CDT
Astronomical Twilight 5:22 AM CDT 8:08 PM CDT
Moon 1:53 PM CDT (10/1) No Moon Set
Length of Visible Light 12h 39m
Length of Day
11h 46m
Tomorrow will be 2m 35s shorter.
First Quarter, 53% of the Moon is Illuminated
Today
First Quarter
Oct 8
Full
Oct 15
Last Quarter
Oct 23
New
Oct 30
First Quarter

Today's Extremes

State Highs State Lows

Community

WunderPhotos

Upload Photos

1,758,118 photos uploaded!

WunderBlogs® & News

Nearby

Snow Depth

Station Depth Elevation
No new snow has been reported.

Earthquake Activity

City Distance Mag. Time & Date
No recent earthquake activity has been reported nearby.
Minimum magnitude displayed is 2.5.

Coastal Water Temperatures

Place Temperature
No Stations Reporting

Nearby Weather Stations